sensor_id;sensor_type;location;lat;lon;timestamp;pressure;altitude;pressure_sealevel;temperature;humidity
13414;BME280;6778;48.136;11.386;2023-02-21T00:01:25;95810.75;;;7.78;58.38
13414;BME280;6778;48.136;11.386;2023-02-21T00:04:10;95810.75;;;7.78;57.89
13414;BME280;6778;48.136;11.386;2023-02-21T00:06:53;95801.50;;;7.75;58.25
13414;BME280;6778;48.136;11.386;2023-02-21T00:09:37;95798.84;;;7.69;58.47
13414;BME280;6778;48.136;11.386;2023-02-21T00:12:20;95794.63;;;7.68;58.53
13414;BME280;6778;48.136;11.386;2023-02-21T00:15:03;95799.59;;;7.62;58.77
13414;BME280;6778;48.136;11.386;2023-02-21T00:17:46;95799.59;;;7.62;58.65
13414;BME280;6778;48.136;11.386;2023-02-21T00:20:31;95795.78;;;7.65;58.94
13414;BME280;6778;48.136;11.386;2023-02-21T00:23:14;95796.19;;;7.62;58.75
13414;BME280;6778;48.136;11.386;2023-02-21T00:25:58;95789.91;;;7.56;59.22
13414;BME280;6778;48.136;11.386;2023-02-21T00:28:41;95800.72;;;7.53;59.13
13414;BME280;6778;48.136;11.386;2023-02-21T00:31:23;95799.44;;;7.49;59.52
13414;BME280;6778;48.136;11.386;2023-02-21T00:34:06;95796.22;;;7.47;59.74
13414;BME280;6778;48.136;11.386;2023-02-21T00:36:51;95801.44;;;7.47;59.84
13414;BME280;6778;48.136;11.386;2023-02-21T00:39:34;95787.81;;;7.45;59.87
13414;BME280;6778;48.136;11.386;2023-02-21T00:42:17;95794.63;;;7.46;59.95
13414;BME280;6778;48.136;11.386;2023-02-21T00:44:59;95789.50;;;7.38;60.53
13414;BME280;6778;48.136;11.386;2023-02-21T00:47:42;95792.09;;;7.38;60.52
13414;BME280;6778;48.136;11.386;2023-02-21T00:50:24;95791.22;;;7.31;60.68
13414;BME280;6778;48.136;11.386;2023-02-21T00:53:10;95784.78;;;7.27;61.21
13414;BME280;6778;48.136;11.386;2023-02-21T00:55:52;95780.56;;;7.26;61.10
13414;BME280;6778;48.136;11.386;2023-02-21T00:58:35;95779.31;;;7.22;61.33
13414;BME280;6778;48.136;11.386;2023-02-21T01:01:18;95773.75;;;7.25;61.43
13414;BME280;6778;48.136;11.386;2023-02-21T01:04:01;95775.72;;;7.23;61.62
13414;BME280;6778;48.136;11.386;2023-02-21T01:06:45;95781.50;;;7.18;61.47
13414;BME280;6778;48.136;11.386;2023-02-21T01:09:30;95776.84;;;7.14;62.09
13414;BME280;6778;48.136;11.386;2023-02-21T01:12:13;95779.44;;;7.14;62.24
13414;BME280;6778;48.136;11.386;2023-02-21T01:14:55;95768.03;;;7.15;61.98
13414;BME280;6778;48.136;11.386;2023-02-21T01:17:38;95763.25;;;7.18;62.06
13414;BME280;6778;48.136;11.386;2023-02-21T01:20:20;95765.22;;;7.16;62.03
13414;BME280;6778;48.136;11.386;2023-02-21T01:23:03;95763.63;;;7.15;61.89
13414;BME280;6778;48.136;11.386;2023-02-21T01:25:50;95756.72;;;7.07;62.50
13414;BME280;6778;48.136;11.386;2023-02-21T01:28:35;95759.44;;;6.99;62.72
13414;BME280;6778;48.136;11.386;2023-02-21T01:31:20;95757.19;;;6.96;63.05
13414;BME280;6778;48.136;11.386;2023-02-21T01:34:05;95751.19;;;6.96;62.84
13414;BME280;6778;48.136;11.386;2023-02-21T01:36:54;95747.56;;;6.97;63.29
13414;BME280;6778;48.136;11.386;2023-02-21T01:39:37;95744.97;;;6.97;63.17
13414;BME280;6778;48.136;11.386;2023-02-21T01:42:23;95746.78;;;6.96;62.91
13414;BME280;6778;48.136;11.386;2023-02-21T01:45:39;95750.47;;;6.87;63.47
13414;BME280;6778;48.136;11.386;2023-02-21T01:48:25;95755.00;;;6.78;63.98
13414;BME280;6778;48.136;11.386;2023-02-21T01:51:12;95742.41;;;6.82;63.82
13414;BME280;6778;48.136;11.386;2023-02-21T01:53:56;95740.25;;;6.86;63.86
13414;BME280;6778;48.136;11.386;2023-02-21T01:56:39;95733.06;;;6.88;63.82
13414;BME280;6778;48.136;11.386;2023-02-21T01:59:25;95735.84;;;6.86;64.10
13414;BME280;6778;48.136;11.386;2023-02-21T02:02:14;95732.78;;;6.82;64.34
13414;BME280;6778;48.136;11.386;2023-02-21T02:05:00;95739.81;;;6.67;64.75
13414;BME280;6778;48.136;11.386;2023-02-21T02:07:44;95728.41;;;6.68;64.98
13414;BME280;6778;48.136;11.386;2023-02-21T02:10:27;95717.47;;;6.73;64.71
13414;BME280;6778;48.136;11.386;2023-02-21T02:13:27;95710.91;;;6.77;64.77
13414;BME280;6778;48.136;11.386;2023-02-21T02:16:13;95715.13;;;6.78;64.74
13414;BME280;6778;48.136;11.386;2023-02-21T02:19:05;95718.19;;;6.67;64.83
13414;BME280;6778;48.136;11.386;2023-02-21T02:22:13;95714.34;;;6.63;65.39
13414;BME280;6778;48.136;11.386;2023-02-21T02:24:59;95712.53;;;6.63;65.40
13414;BME280;6778;48.136;11.386;2023-02-21T02:27:53;95710.19;;;6.68;65.45
13414;BME280;6778;48.136;11.386;2023-02-21T02:36:53;95711.91;;;6.61;66.15
13414;BME280;6778;48.136;11.386;2023-02-21T02:39:36;95706.63;;;6.54;66.43
13414;BME280;6778;48.136;11.386;2023-02-21T02:42:18;95720.75;;;6.45;66.87
13414;BME280;6778;48.136;11.386;2023-02-21T02:44:57;95720.75;;;6.31;67.45
13414;BME280;6778;48.136;11.386;2023-02-21T02:47:35;95718.78;;;6.18;67.77
13414;BME280;6778;48.136;11.386;2023-02-21T02:50:08;95718.69;;;6.11;67.48
13414;BME280;6778;48.136;11.386;2023-02-21T02:52:53;95706.19;;;5.92;67.43
13414;BME280;6778;48.136;11.386;2023-02-21T02:55:33;95706.75;;;5.79;67.47
13414;BME280;6778;48.136;11.386;2023-02-21T02:58:06;95704.06;;;5.72;67.38
13414;BME280;6778;48.136;11.386;2023-02-21T03:00:43;95699.69;;;5.73;67.84
13414;BME280;6778;48.136;11.386;2023-02-21T03:03:41;95705.16;;;5.78;67.46
13414;BME280;6778;48.136;11.386;2023-02-21T03:06:29;95704.56;;;5.53;68.25
13414;BME280;6778;48.136;11.386;2023-02-21T03:09:12;95701.31;;;5.36;69.15
13414;BME280;6778;48.136;11.386;2023-02-21T03:12:00;95695.97;;;5.53;68.75
13414;BME280;6778;48.136;11.386;2023-02-21T03:14:44;95703.22;;;5.57;68.50
13414;BME280;6778;48.136;11.386;2023-02-21T03:17:19;95702.00;;;5.68;68.85
13414;BME280;6778;48.136;11.386;2023-02-21T03:19:55;95710.44;;;5.70;69.25
13414;BME280;6778;48.136;11.386;2023-02-21T03:22:28;95699.69;;;5.73;69.30
13414;BME280;6778;48.136;11.386;2023-02-21T03:25:03;95708.38;;;5.80;69.41
13414;BME280;6778;48.136;11.386;2023-02-21T03:27:36;95707.56;;;5.80;69.37
13414;BME280;6778;48.136;11.386;2023-02-21T03:30:16;95706.06;;;5.85;69.04
13414;BME280;6778;48.136;11.386;2023-02-21T03:32:51;95711.06;;;5.87;69.12
13414;BME280;6778;48.136;11.386;2023-02-21T03:35:27;95710.28;;;5.86;69.33
13414;BME280;6778;48.136;11.386;2023-02-21T03:37:58;95711.88;;;5.87;69.17
13414;BME280;6778;48.136;11.386;2023-02-21T03:40:33;95702.13;;;5.89;69.20
13414;BME280;6778;48.136;11.386;2023-02-21T03:43:05;95703.09;;;5.88;69.68
13414;BME280;6778;48.136;11.386;2023-02-21T03:45:48;95703.28;;;5.87;69.47
13414;BME280;6778;48.136;11.386;2023-02-21T03:48:19;95707.84;;;5.85;69.30
13414;BME280;6778;48.136;11.386;2023-02-21T03:51:11;95706.06;;;5.85;69.65
13414;BME280;6778;48.136;11.386;2023-02-21T03:53:44;95711.59;;;5.82;69.58
13414;BME280;6778;48.136;11.386;2023-02-21T03:56:20;95710.16;;;5.80;69.86
13414;BME280;6778;48.136;11.386;2023-02-21T03:59:19;95710.06;;;5.73;70.18
13414;BME280;6778;48.136;11.386;2023-02-21T04:01:49;95708.16;;;5.67;70.57
13414;BME280;6778;48.136;11.386;2023-02-21T04:04:21;95706.56;;;5.66;70.73
13414;BME280;6778;48.136;11.386;2023-02-21T04:07:00;95704.78;;;5.66;70.64
13414;BME280;6778;48.136;11.386;2023-02-21T04:09:31;95708.91;;;5.38;71.25
13414;BME280;6778;48.136;11.386;2023-02-21T04:12:04;95712.44;;;5.22;71.98
13414;BME280;6778;48.136;11.386;2023-02-21T04:14:38;95716.59;;;5.08;72.12
13414;BME280;6778;48.136;11.386;2023-02-21T04:17:08;95712.00;;;4.87;71.99
13414;BME280;6778;48.136;11.386;2023-02-21T04:19:39;95718.47;;;4.91;71.39
13414;BME280;6778;48.136;11.386;2023-02-21T04:22:09;95718.09;;;4.72;71.03
13414;BME280;6778;48.136;11.386;2023-02-21T04:24:39;95717.69;;;4.52;71.29
13414;BME280;6778;48.136;11.386;2023-02-21T04:27:13;95717.72;;;4.44;71.66
13414;BME280;6778;48.136;11.386;2023-02-21T04:29:49;95714.63;;;4.48;71.59
13414;BME280;6778;48.136;11.386;2023-02-21T04:32:19;95714.91;;;4.61;71.04
13414;BME280;6778;48.136;11.386;2023-02-21T04:34:50;95706.91;;;4.71;71.35
13414;BME280;6778;48.136;11.386;2023-02-21T04:37:22;95709.56;;;4.86;71.75
13414;BME280;6778;48.136;11.386;2023-02-21T04:39:54;95704.31;;;5.02;72.42
13414;BME280;6778;48.136;11.386;2023-02-21T04:42:28;95704.56;;;5.07;72.49
13414;BME280;6778;48.136;11.386;2023-02-21T04:45:07;95700.19;;;5.08;72.45
13414;BME280;6778;48.136;11.386;2023-02-21T04:47:38;95702.63;;;5.09;72.38
13414;BME280;6778;48.136;11.386;2023-02-21T04:50:08;95702.91;;;5.14;72.24
13414;BME280;6778;48.136;11.386;2023-02-21T04:52:39;95701.47;;;5.12;72.65
13414;BME280;6778;48.136;11.386;2023-02-21T04:55:10;95697.50;;;5.24;73.09
13414;BME280;6778;48.136;11.386;2023-02-21T04:57:45;95696.38;;;5.41;72.32
13414;BME280;6778;48.136;11.386;2023-02-21T05:00:16;95689.03;;;5.45;72.51
13414;BME280;6778;48.136;11.386;2023-02-21T05:02:46;95693.97;;;5.55;71.91
13414;BME280;6778;48.136;11.386;2023-02-21T05:05:16;95691.06;;;5.58;71.69
13414;BME280;6778;48.136;11.386;2023-02-21T05:07:46;95688.09;;;5.61;71.54
13414;BME280;6778;48.136;11.386;2023-02-21T05:10:17;95686.56;;;5.66;71.56
13414;BME280;6778;48.136;11.386;2023-02-21T05:12:50;95683.34;;;5.64;71.28
13414;BME280;6778;48.136;11.386;2023-02-21T05:15:20;95677.91;;;5.74;71.41
13414;BME280;6778;48.136;11.386;2023-02-21T05:17:50;95679.88;;;5.72;70.90
13414;BME280;6778;48.136;11.386;2023-02-21T05:20:20;95681.16;;;5.76;70.79
13414;BME280;6778;48.136;11.386;2023-02-21T05:22:50;95679.06;;;5.71;71.10
13414;BME280;6778;48.136;11.386;2023-02-21T05:25:25;95677.47;;;5.70;71.00
13414;BME280;6778;48.136;11.386;2023-02-21T05:27:57;95678.25;;;5.71;70.87
13414;BME280;6778;48.136;11.386;2023-02-21T05:30:28;95678.59;;;5.68;70.73
13414;BME280;6778;48.136;11.386;2023-02-21T05:33:07;95679.25;;;5.70;70.49
13414;BME280;6778;48.136;11.386;2023-02-21T05:35:37;95680.16;;;5.77;70.67
13414;BME280;6778;48.136;11.386;2023-02-21T05:38:07;95677.38;;;5.79;70.47
13414;BME280;6778;48.136;11.386;2023-02-21T05:40:37;95674.59;;;5.80;70.57
13414;BME280;6778;48.136;11.386;2023-02-21T05:43:10;95675.22;;;5.82;70.70
13414;BME280;6778;48.136;11.386;2023-02-21T05:45:40;95672.97;;;5.79;70.60
13414;BME280;6778;48.136;11.386;2023-02-21T05:48:11;95670.81;;;5.68;70.95
13414;BME280;6778;48.136;11.386;2023-02-21T05:50:41;95675.94;;;5.76;71.19
13414;BME280;6778;48.136;11.386;2023-02-21T05:53:18;95675.56;;;5.79;70.43
13414;BME280;6778;48.136;11.386;2023-02-21T05:55:49;95670.38;;;5.79;70.34
13414;BME280;6778;48.136;11.386;2023-02-21T05:58:21;95672.34;;;5.77;70.65
13414;BME280;6778;48.136;11.386;2023-02-21T06:00:52;95674.88;;;5.85;70.86
13414;BME280;6778;48.136;11.386;2023-02-21T06:03:25;95671.28;;;5.86;70.73
13414;BME280;6778;48.136;11.386;2023-02-21T06:05:57;95670.66;;;5.84;70.61
13414;BME280;6778;48.136;11.386;2023-02-21T06:08:30;95663.47;;;5.86;70.48
13414;BME280;6778;48.136;11.386;2023-02-21T06:11:00;95665.28;;;5.86;70.19
13414;BME280;6778;48.136;11.386;2023-02-21T06:13:34;95668.34;;;5.89;70.16
13414;BME280;6778;48.136;11.386;2023-02-21T06:16:05;95669.00;;;5.91;70.52
13414;BME280;6778;48.136;11.386;2023-02-21T06:18:35;95673.00;;;5.94;69.98
13414;BME280;6778;48.136;11.386;2023-02-21T06:21:05;95672.22;;;5.93;70.16
13414;BME280;6778;48.136;11.386;2023-02-21T06:23:35;95677.25;;;6.10;69.54
13414;BME280;6778;48.136;11.386;2023-02-21T06:26:08;95680.44;;;6.41;68.62
13414;BME280;6778;48.136;11.386;2023-02-21T06:28:42;95674.72;;;6.82;66.43
13414;BME280;6778;48.136;11.386;2023-02-21T06:31:15;95676.38;;;7.26;64.73
13414;BME280;6778;48.136;11.386;2023-02-21T06:33:49;95675.41;;;7.83;62.53
13414;BME280;6778;48.136;11.386;2023-02-21T06:36:22;95678.75;;;8.81;59.18
13414;BME280;6778;48.136;11.386;2023-02-21T06:38:54;95680.44;;;10.27;54.21
13414;BME280;6778;48.136;11.386;2023-02-21T06:41:28;95678.59;;;11.56;50.16
13414;BME280;6778;48.136;11.386;2023-02-21T06:44:00;95694.84;;;12.21;48.24
13414;BME280;6778;48.136;11.386;2023-02-21T06:46:30;95683.63;;;11.89;48.61
13414;BME280;6778;48.136;11.386;2023-02-21T06:49:02;95688.00;;;11.07;50.65
13414;BME280;6778;48.136;11.386;2023-02-21T06:51:33;95688.50;;;10.12;53.16
13414;BME280;6778;48.136;11.386;2023-02-21T06:54:04;95689.53;;;10.05;53.56
13414;BME280;6778;48.136;11.386;2023-02-21T06:56:36;95690.50;;;10.37;52.89
13414;BME280;6778;48.136;11.386;2023-02-21T06:59:09;95689.72;;;10.81;51.95
13414;BME280;6778;48.136;11.386;2023-02-21T07:01:39;95691.19;;;11.47;51.70
13414;BME280;6778;48.136;11.386;2023-02-21T07:04:09;95701.03;;;11.83;50.09
13414;BME280;6778;48.136;11.386;2023-02-21T07:06:39;95700.81;;;12.10;49.20
13414;BME280;6778;48.136;11.386;2023-02-21T07:09:09;95704.50;;;12.45;48.27
13414;BME280;6778;48.136;11.386;2023-02-21T07:11:39;95704.34;;;12.95;47.02
13414;BME280;6778;48.136;11.386;2023-02-21T07:14:13;95699.91;;;13.26;46.33
13414;BME280;6778;48.136;11.386;2023-02-21T07:16:43;95709.63;;;13.67;45.61
13414;BME280;6778;48.136;11.386;2023-02-21T07:19:13;95701.19;;;13.88;44.77
13414;BME280;6778;48.136;11.386;2023-02-21T07:21:46;95704.78;;;14.17;44.26
13414;BME280;6778;48.136;11.386;2023-02-21T07:24:17;95699.84;;;14.44;43.38
13414;BME280;6778;48.136;11.386;2023-02-21T07:26:47;95705.59;;;14.65;42.76
13414;BME280;6778;48.136;11.386;2023-02-21T07:29:20;95704.84;;;14.93;42.26
13414;BME280;6778;48.136;11.386;2023-02-21T07:31:50;95711.94;;;14.92;41.89
13414;BME280;6778;48.136;11.386;2023-02-21T07:34:22;95707.97;;;15.18;41.44
13414;BME280;6778;48.136;11.386;2023-02-21T07:36:52;95702.13;;;15.45;41.10
13414;BME280;6778;48.136;11.386;2023-02-21T07:39:22;95713.78;;;15.49;40.71
13414;BME280;6778;48.136;11.386;2023-02-21T07:41:52;95698.78;;;15.21;40.73
13414;BME280;6778;48.136;11.386;2023-02-21T07:44:30;95702.53;;;15.53;40.07
13414;BME280;6778;48.136;11.386;2023-02-21T07:47:00;95702.34;;;15.72;40.09
13414;BME280;6778;48.136;11.386;2023-02-21T07:49:30;95711.31;;;16.21;38.80
13414;BME280;6778;48.136;11.386;2023-02-21T07:52:00;95710.63;;;16.48;38.03
13414;BME280;6778;48.136;11.386;2023-02-21T07:54:30;95715.63;;;17.05;37.42
13414;BME280;6778;48.136;11.386;2023-02-21T07:57:01;95715.13;;;16.86;36.90
13414;BME280;6778;48.136;11.386;2023-02-21T07:59:33;95716.16;;;17.07;36.51
13414;BME280;6778;48.136;11.386;2023-02-21T08:02:03;95717.16;;;17.71;36.76
13414;BME280;6778;48.136;11.386;2023-02-21T08:04:33;95717.44;;;18.07;35.89
13414;BME280;6778;48.136;11.386;2023-02-21T08:07:03;95715.03;;;18.38;35.02
13414;BME280;6778;48.136;11.386;2023-02-21T08:09:35;95719.22;;;18.34;35.08
13414;BME280;6778;48.136;11.386;2023-02-21T08:12:06;95717.38;;;19.49;34.33
13414;BME280;6778;48.136;11.386;2023-02-21T08:14:38;95718.69;;;19.42;33.53
13414;BME280;6778;48.136;11.386;2023-02-21T08:17:08;95715.06;;;19.63;32.96
13414;BME280;6778;48.136;11.386;2023-02-21T08:19:39;95717.19;;;19.66;32.90
13414;BME280;6778;48.136;11.386;2023-02-21T08:22:10;95712.69;;;19.72;32.74
13414;BME280;6778;48.136;11.386;2023-02-21T08:24:40;95712.41;;;19.58;32.26
13414;BME280;6778;48.136;11.386;2023-02-21T08:27:11;95711.28;;;19.49;31.68
13414;BME280;6778;48.136;11.386;2023-02-21T08:29:44;95716.91;;;19.62;31.67
13414;BME280;6778;48.136;11.386;2023-02-21T08:32:15;95719.34;;;20.15;31.54
13414;BME280;6778;48.136;11.386;2023-02-21T08:34:46;95719.28;;;20.81;30.51
13414;BME280;6778;48.136;11.386;2023-02-21T08:37:16;95728.91;;;20.62;30.38
13414;BME280;6778;48.136;11.386;2023-02-21T08:39:46;95727.72;;;21.09;30.14
13414;BME280;6778;48.136;11.386;2023-02-21T08:42:18;95733.25;;;21.17;29.99
13414;BME280;6778;48.136;11.386;2023-02-21T08:44:53;95736.34;;;21.50;29.20
13414;BME280;6778;48.136;11.386;2023-02-21T08:47:23;95740.47;;;21.71;29.20
13414;BME280;6778;48.136;11.386;2023-02-21T08:49:53;95740.00;;;21.64;28.81
13414;BME280;6778;48.136;11.386;2023-02-21T08:52:23;95737.56;;;22.12;28.28
13414;BME280;6778;48.136;11.386;2023-02-21T08:54:53;95725.78;;;22.76;27.60
13414;BME280;6778;48.136;11.386;2023-02-21T08:57:23;95727.97;;;22.69;27.54
13414;BME280;6778;48.136;11.386;2023-02-21T08:59:57;95732.50;;;22.69;27.19
13414;BME280;6778;48.136;11.386;2023-02-21T09:02:28;95730.34;;;23.00;26.53
13414;BME280;6778;48.136;11.386;2023-02-21T09:04:58;95734.75;;;22.91;26.35
13414;BME280;6778;48.136;11.386;2023-02-21T09:07:31;95730.78;;;23.50;26.00
13414;BME280;6778;48.136;11.386;2023-02-21T09:10:01;95730.28;;;23.48;25.49
13414;BME280;6778;48.136;11.386;2023-02-21T09:12:31;95722.09;;;23.20;25.90
13414;BME280;6778;48.136;11.386;2023-02-21T09:15:06;95729.31;;;24.00;25.24
13414;BME280;6778;48.136;11.386;2023-02-21T09:17:36;95726.75;;;24.60;24.75
13414;BME280;6778;48.136;11.386;2023-02-21T09:20:11;95723.84;;;24.57;24.57
13414;BME280;6778;48.136;11.386;2023-02-21T09:22:42;95731.53;;;25.46;23.87
13414;BME280;6778;48.136;11.386;2023-02-21T09:25:15;95731.28;;;25.34;24.03
13414;BME280;6778;48.136;11.386;2023-02-21T09:27:45;95732.31;;;25.46;23.79
13414;BME280;6778;48.136;11.386;2023-02-21T09:30:23;95736.34;;;25.21;23.45
13414;BME280;6778;48.136;11.386;2023-02-21T09:32:55;95734.06;;;25.15;23.32
13414;BME280;6778;48.136;11.386;2023-02-21T09:35:25;95726.91;;;25.10;23.45
13414;BME280;6778;48.136;11.386;2023-02-21T09:37:58;95731.88;;;26.17;22.85
13414;BME280;6778;48.136;11.386;2023-02-21T09:40:38;95726.25;;;26.04;22.74
13414;BME280;6778;48.136;11.386;2023-02-21T09:43:13;95719.34;;;26.12;22.25
13414;BME280;6778;48.136;11.386;2023-02-21T09:45:50;95718.97;;;26.81;21.59
13414;BME280;6778;48.136;11.386;2023-02-21T09:48:22;95730.00;;;26.26;21.88
13414;BME280;6778;48.136;11.386;2023-02-21T09:50:57;95720.22;;;27.80;21.07
13414;BME280;6778;48.136;11.386;2023-02-21T09:53:30;95721.03;;;28.88;20.43
13414;BME280;6778;48.136;11.386;2023-02-21T09:56:05;95727.50;;;29.34;19.96
13414;BME280;6778;48.136;11.386;2023-02-21T09:58:42;95715.44;;;29.02;19.78
13414;BME280;6778;48.136;11.386;2023-02-21T10:01:24;95730.53;;;28.39;20.31
13414;BME280;6778;48.136;11.386;2023-02-21T10:04:07;95727.66;;;28.52;20.43
13414;BME280;6778;48.136;11.386;2023-02-21T10:06:50;95725.72;;;28.62;20.03
13414;BME280;6778;48.136;11.386;2023-02-21T10:09:30;95728.41;;;28.62;20.13
13414;BME280;6778;48.136;11.386;2023-02-21T10:12:16;95724.34;;;28.85;20.12
13414;BME280;6778;48.136;11.386;2023-02-21T10:15:07;95721.19;;;27.84;20.84
13414;BME280;6778;48.136;11.386;2023-02-21T10:17:53;95722.50;;;29.45;20.14
13414;BME280;6778;48.136;11.386;2023-02-21T10:20:32;95717.03;;;29.32;20.10
13414;BME280;6778;48.136;11.386;2023-02-21T10:23:14;95713.72;;;28.33;20.29
13414;BME280;6778;48.136;11.386;2023-02-21T10:25:45;95714.47;;;28.51;20.37
13414;BME280;6778;48.136;11.386;2023-02-21T10:28:22;95713.25;;;28.05;20.55
13414;BME280;6778;48.136;11.386;2023-02-21T10:30:57;95715.63;;;28.15;20.79
13414;BME280;6778;48.136;11.386;2023-02-21T10:33:36;95724.09;;;28.69;20.19
13414;BME280;6778;48.136;11.386;2023-02-21T10:36:11;95726.03;;;28.60;20.25
13414;BME280;6778;48.136;11.386;2023-02-21T10:38:57;95715.19;;;29.54;19.32
13414;BME280;6778;48.136;11.386;2023-02-21T10:41:29;95715.28;;;28.98;19.97
13414;BME280;6778;48.136;11.386;2023-02-21T10:44:05;95716.41;;;27.81;20.08
13414;BME280;6778;48.136;11.386;2023-02-21T10:46:42;95712.81;;;29.23;19.72
13414;BME280;6778;48.136;11.386;2023-02-21T10:49:24;95715.66;;;28.79;20.04
13414;BME280;6778;48.136;11.386;2023-02-21T10:52:07;95712.94;;;28.33;20.61
13414;BME280;6778;48.136;11.386;2023-02-21T10:54:39;95706.25;;;28.30;20.58
13414;BME280;6778;48.136;11.386;2023-02-21T10:57:11;95703.84;;;28.54;20.32
13414;BME280;6778;48.136;11.386;2023-02-21T10:59:47;95701.00;;;27.47;20.86
13414;BME280;6778;48.136;11.386;2023-02-21T11:02:28;95700.59;;;27.14;21.64
13414;BME280;6778;48.136;11.386;2023-02-21T11:05:13;95695.88;;;27.19;21.14
13414;BME280;6778;48.136;11.386;2023-02-21T11:07:57;95691.59;;;27.10;21.16
13414;BME280;6778;48.136;11.386;2023-02-21T11:10:30;95694.22;;;26.39;21.45
13414;BME280;6778;48.136;11.386;2023-02-21T11:13:05;95681.97;;;26.24;22.47
13414;BME280;6778;48.136;11.386;2023-02-21T11:15:36;95681.31;;;26.19;22.10
13414;BME280;6778;48.136;11.386;2023-02-21T11:18:13;95681.97;;;25.43;22.75
13414;BME280;6778;48.136;11.386;2023-02-21T11:20:46;95674.03;;;23.90;24.62
13414;BME280;6778;48.136;11.386;2023-02-21T11:23:23;95672.91;;;22.73;25.99
13414;BME280;6778;48.136;11.386;2023-02-21T11:25:59;95668.94;;;22.18;27.07
13414;BME280;6778;48.136;11.386;2023-02-21T11:28:37;95668.91;;;21.44;28.00
13414;BME280;6778;48.136;11.386;2023-02-21T11:31:16;95663.50;;;21.05;27.64
13414;BME280;6778;48.136;11.386;2023-02-21T11:33:54;95657.56;;;20.38;28.53
13414;BME280;6778;48.136;11.386;2023-02-21T11:36:31;95644.28;;;20.38;29.76
13414;BME280;6778;48.136;11.386;2023-02-21T11:39:05;95650.97;;;21.06;29.22
13414;BME280;6778;48.136;11.386;2023-02-21T11:41:38;95647.38;;;20.76;29.76
13414;BME280;6778;48.136;11.386;2023-02-21T11:44:29;95643.19;;;20.60;29.73
13414;BME280;6778;48.136;11.386;2023-02-21T11:47:11;95637.16;;;20.03;29.85
13414;BME280;6778;48.136;11.386;2023-02-21T11:49:52;95633.38;;;20.35;30.63
13414;BME280;6778;48.136;11.386;2023-02-21T11:52:33;95632.59;;;20.29;29.98
13414;BME280;6778;48.136;11.386;2023-02-21T11:55:13;95625.75;;;19.82;31.02
13414;BME280;6778;48.136;11.386;2023-02-21T11:57:57;95622.00;;;19.53;31.79
13414;BME280;6778;48.136;11.386;2023-02-21T12:00:38;95623.31;;;19.25;32.12
13414;BME280;6778;48.136;11.386;2023-02-21T12:06:30;95612.94;;;19.18;32.57
13414;BME280;6778;48.136;11.386;2023-02-21T12:09:11;95608.69;;;19.17;32.60
13414;BME280;6778;48.136;11.386;2023-02-21T12:11:52;95607.31;;;19.04;32.86
13414;BME280;6778;48.136;11.386;2023-02-21T12:14:39;95599.97;;;18.59;33.70
13414;BME280;6778;48.136;11.386;2023-02-21T12:17:26;95598.25;;;18.22;34.05
13414;BME280;6778;48.136;11.386;2023-02-21T12:20:16;95595.81;;;18.73;34.18
13414;BME280;6778;48.136;11.386;2023-02-21T12:23:07;95590.88;;;18.40;34.02
13414;BME280;6778;48.136;11.386;2023-02-21T12:25:58;95585.97;;;18.11;34.42
13414;BME280;6778;48.136;11.386;2023-02-21T12:28:46;95586.03;;;18.26;34.75
13414;BME280;6778;48.136;11.386;2023-02-21T12:31:32;95584.53;;;17.93;35.42
13414;BME280;6778;48.136;11.386;2023-02-21T12:34:21;95580.31;;;17.97;35.65
13414;BME280;6778;48.136;11.386;2023-02-21T12:37:09;95569.91;;;17.86;35.64
13414;BME280;6778;48.136;11.386;2023-02-21T12:39:57;95572.25;;;17.77;35.94
13414;BME280;6778;48.136;11.386;2023-02-21T12:45:48;95564.88;;;17.52;35.74
13414;BME280;6778;48.136;11.386;2023-02-21T12:48:29;95561.91;;;17.43;36.28
13414;BME280;6778;48.136;11.386;2023-02-21T12:51:03;95558.78;;;17.19;36.31
13414;BME280;6778;48.136;11.386;2023-02-21T12:53:42;95547.41;;;17.19;36.79
13414;BME280;6778;48.136;11.386;2023-02-21T12:56:20;95545.34;;;17.26;36.96
13414;BME280;6778;48.136;11.386;2023-02-21T12:58:59;95536.22;;;17.12;37.21
13414;BME280;6778;48.136;11.386;2023-02-21T13:01:35;95535.34;;;17.01;37.18
13414;BME280;6778;48.136;11.386;2023-02-21T13:04:17;95529.47;;;16.99;37.69
13414;BME280;6778;48.136;11.386;2023-02-21T13:06:56;95530.34;;;17.05;37.44
13414;BME280;6778;48.136;11.386;2023-02-21T13:09:33;95523.25;;;17.10;37.55
13414;BME280;6778;48.136;11.386;2023-02-21T13:12:07;95520.66;;;16.88;37.79
13414;BME280;6778;48.136;11.386;2023-02-21T13:14:45;95520.63;;;16.83;37.71
13414;BME280;6778;48.136;11.386;2023-02-21T13:17:18;95509.22;;;16.83;37.41
13414;BME280;6778;48.136;11.386;2023-02-21T13:19:53;95507.84;;;16.75;37.78
13414;BME280;6778;48.136;11.386;2023-02-21T13:22:28;95500.34;;;16.67;37.99
13414;BME280;6778;48.136;11.386;2023-02-21T13:25:27;95497.34;;;16.85;38.24
13414;BME280;6778;48.136;11.386;2023-02-21T13:28:07;95492.34;;;16.89;38.60
13414;BME280;6778;48.136;11.386;2023-02-21T13:30:45;95490.25;;;16.91;38.48
13414;BME280;6778;48.136;11.386;2023-02-21T13:33:25;95486.28;;;16.88;38.40
13414;BME280;6778;48.136;11.386;2023-02-21T13:35:57;95483.63;;;16.88;38.85
13414;BME280;6778;48.136;11.386;2023-02-21T13:38:30;95482.44;;;16.74;37.99
13414;BME280;6778;48.136;11.386;2023-02-21T13:41:08;95475.63;;;16.56;38.60
13414;BME280;6778;48.136;11.386;2023-02-21T13:43:47;95480.56;;;16.48;38.38
13414;BME280;6778;48.136;11.386;2023-02-21T13:49:54;95473.50;;;16.58;39.51
13414;BME280;6778;48.136;11.386;2023-02-21T13:52:50;95474.09;;;16.65;39.66
13414;BME280;6778;48.136;11.386;2023-02-21T13:55:29;95470.75;;;16.70;39.66
13414;BME280;6778;48.136;11.386;2023-02-21T13:58:30;95463.69;;;16.54;39.28
13414;BME280;6778;48.136;11.386;2023-02-21T14:01:19;95462.09;;;16.53;39.87
13414;BME280;6778;48.136;11.386;2023-02-21T14:03:57;95458.22;;;16.60;40.53
13414;BME280;6778;48.136;11.386;2023-02-21T14:06:32;95450.72;;;16.52;39.78
13414;BME280;6778;48.136;11.386;2023-02-21T14:09:12;95445.94;;;16.49;39.45
13414;BME280;6778;48.136;11.386;2023-02-21T14:11:46;95438.53;;;16.78;39.90
13414;BME280;6778;48.136;11.386;2023-02-21T14:14:25;95443.03;;;17.52;44.20